Time;durP1;ratioP1;P1;durP2;ratioP2;P2;SDS_P1;SDS_P2;PMS_P1;PMS_P2;Temp;Humidity;BMP_temperature;BMP_pressure;BME280_temperature;BME280_humidity;BME280_pressure;Samples;Min_cycle;Max_cycle;Signal;HPM_P1;HPM_P2
2024/04/25 00:00:12;;;;;;;4.85;1.00;;;;;;;;;;5365252;26;20043;-62
2024/04/25 00:02:41;;;;;;;6.22;1.35;;;;;;;;;;5369562;26;20008;-62
2024/04/25 00:05:12;;;;;;;4.20;1.10;;;;;;;;;;5322548;26;20000;-63
2024/04/25 00:07:40;;;;;;;3.97;1.35;;;;;;;;;;5346479;26;20019;-62
2024/04/25 00:10:09;;;;;;;4.28;1.25;;;;;;;;;;5359516;26;20000;-62
2024/04/25 00:12:37;;;;;;;3.75;1.23;;;;;;;;;;5353671;26;20000;-62
2024/04/25 00:15:06;;;;;;;7.03;1.40;;;;;;;;;;5353988;26;20019;-62
2024/04/25 00:17:34;;;;;;;;;;;;;;;;;;5359050;26;19997;-62
2024/04/25 00:20:02;;;;;;;2.60;1.05;;;;;;;;;;5358980;26;19971;-61
2024/04/25 00:22:33;;;;;;;5.45;1.30;;;;;;;;;;5341118;26;20082;-62
2024/04/25 00:25:01;;;;;;;3.70;1.50;;;;;;;;;;5359327;26;19997;-61
2024/04/25 00:27:30;;;;;;;5.18;1.50;;;;;;;;;;5356016;26;20007;-63
2024/04/25 00:29:59;;;;;;;7.93;1.30;;;;;;;;;;5360240;26;20008;-62
2024/04/25 00:32:27;;;;;;;3.65;1.67;;;;;;;;;;5355235;26;20015;-62
2024/04/25 00:34:57;;;;;;;3.28;1.33;;;;;;;;;;5354739;26;20001;-62
2024/04/25 00:37:25;;;;;;;5.28;1.60;;;;;;;;;;5355264;26;20015;-62
2024/04/25 00:39:57;;;;;;;3.67;1.75;;;;;;;;;;5352418;26;20100;-61
2024/04/25 00:42:28;;;;;;;3.42;1.48;;;;;;;;;;5351704;26;20011;-62
2024/04/25 00:44:56;;;;;;;7.22;1.63;;;;;;;;;;5336287;26;20069;-61
2024/04/25 00:47:25;;;;;;;7.47;1.90;;;;;;;;;;5359905;26;20102;-62
2024/04/25 00:49:56;;;;;;;3.85;1.52;;;;;;;;;;5354791;26;20004;-62
2024/04/25 00:52:25;;;;;;;7.38;1.50;;;;;;;;;;5351282;26;20118;-62
2024/04/25 00:54:56;;;;;;;3.78;1.80;;;;;;;;;;5339203;26;20019;-62
2024/04/25 00:57:26;;;;;;;6.53;1.70;;;;;;;;;;5341080;26;20044;-62
2024/04/25 00:59:58;;;;;;;3.65;1.50;;;;;;;;;;5358460;26;20020;-62
2024/04/25 01:02:28;;;;;;;6.82;1.50;;;;;;;;;;5351204;26;20004;-62
2024/04/25 01:04:58;;;;;;;10.60;1.80;;;;;;;;;;5355526;26;20000;-61
2024/04/25 01:07:26;;;;;;;4.43;1.60;;;;;;;;;;5363085;26;20044;-61
2024/04/25 01:09:57;;;;;;;4.45;1.35;;;;;;;;;;5362653;26;20004;-62
2024/04/25 01:12:26;;;;;;;8.93;1.83;;;;;;;;;;5356806;26;20031;-63
2024/04/25 01:14:54;;;;;;;;;;;;;;;;;;5355923;26;20007;-62
2024/04/25 01:17:22;;;;;;;6.30;1.48;;;;;;;;;;5342803;26;19926;-62
2024/04/25 01:19:51;;;;;;;3.97;1.42;;;;;;;;;;5352731;26;20015;-63
2024/04/25 01:22:20;;;;;;;5.25;1.38;;;;;;;;;;5357988;26;20015;-63
2024/04/25 01:24:51;;;;;;;6.68;1.55;;;;;;;;;;5363064;26;20039;-62
2024/04/25 01:27:19;;;;;;;8.38;1.92;;;;;;;;;;5362986;26;20099;-62
2024/04/25 01:29:49;;;;;;;5.75;1.17;;;;;;;;;;5360158;26;20035;-62
2024/04/25 01:32:18;;;;;;;5.13;1.52;;;;;;;;;;5359563;26;20036;-62
2024/04/25 01:34:44;;;;;;;5.43;1.45;;;;;;;;;;5315858;26;20019;-62
2024/04/25 01:37:12;;;;;;;7.63;1.50;;;;;;;;;;5362472;26;20085;-63
2024/04/25 01:39:40;;;;;;;5.95;1.58;;;;;;;;;;5358058;26;20092;-62
2024/04/25 01:42:11;;;;;;;6.55;1.40;;;;;;;;;;5363393;26;20085;-62
2024/04/25 01:44:40;;;;;;;6.30;1.58;;;;;;;;;;5355641;26;20007;-63
2024/04/25 01:47:08;;;;;;;3.17;1.27;;;;;;;;;;5372170;26;20004;-63
2024/04/25 01:49:36;;;;;;;2.47;1.27;;;;;;;;;;5360842;26;20058;-63
2024/04/25 01:52:05;;;;;;;3.65;1.30;;;;;;;;;;5361701;26;20033;-63
2024/04/25 01:54:33;;;;;;;3.75;1.30;;;;;;;;;;5349286;26;20036;-62
2024/04/25 01:57:01;;;;;;;6.20;1.27;;;;;;;;;;5351054;26;20020;-62
2024/04/25 01:59:32;;;;;;;6.07;1.35;;;;;;;;;;5361959;26;20107;-63
2024/04/25 02:02:00;;;;;;;6.68;1.60;;;;;;;;;;5363687;26;20095;-62
2024/04/25 02:04:29;;;;;;;2.47;1.23;;;;;;;;;;5335124;26;20013;-62
2024/04/25 02:06:57;;;;;;;5.60;1.30;;;;;;;;;;5355965;26;20040;-61
2024/04/25 02:09:25;;;;;;;5.95;1.30;;;;;;;;;;5362423;26;20019;-62
2024/04/25 02:11:53;;;;;;;5.55;1.35;;;;;;;;;;5356135;26;20301;-62
2024/04/25 02:14:22;;;;;;;8.90;1.38;;;;;;;;;;5340708;26;20056;-62
2024/04/25 02:16:53;;;;;;;5.68;1.48;;;;;;;;;;5327971;26;20048;-63
2024/04/25 02:19:21;;;;;;;3.67;1.15;;;;;;;;;;5312715;26;20016;-63
2024/04/25 02:27:33;;;;;;;6.53;1.35;;;;;;;;;;5247768;27;20055;-62
2024/04/25 02:30:01;;;;;;;2.75;1.20;;;;;;;;;;5245805;27;20179;-62
2024/04/25 02:32:32;;;;;;;2.22;1.10;;;;;;;;;;5286006;26;20020;-63
2024/04/25 02:35:00;;;;;;;2.60;1.10;;;;;;;;;;5337104;26;20070;-62
2024/04/25 02:37:29;;;;;;;2.50;1.00;;;;;;;;;;5359619;26;20101;-62
2024/04/25 02:39:57;;;;;;;;;;;;;;;;;;5356359;26;20008;-63
2024/04/25 02:42:25;;;;;;;2.40;0.82;;;;;;;;;;5359405;26;20028;-62
2024/04/25 02:44:51;;;;;;;2.42;1.30;;;;;;;;;;5313947;26;20002;-62
2024/04/25 02:47:19;;;;;;;1.88;0.90;;;;;;;;;;5306605;26;20023;-62
2024/04/25 02:49:48;;;;;;;4.75;1.05;;;;;;;;;;5289903;26;20089;-63
2024/04/25 02:52:16;;;;;;;2.67;0.90;;;;;;;;;;5293515;26;20010;-62
2024/04/25 02:54:42;;;;;;;2.25;1.00;;;;;;;;;;5306406;26;20064;-62
2024/04/25 02:57:10;;;;;;;3.15;1.20;;;;;;;;;;5340943;26;20011;-62
2024/04/25 02:59:35;;;;;;;5.07;1.10;;;;;;;;;;5319524;26;20028;-65
2024/04/25 03:02:06;;;;;;;4.47;1.10;;;;;;;;;;5324815;26;20100;-62
2024/04/25 03:04:31;;;;;;;3.08;1.00;;;;;;;;;;5289806;26;20024;-62
2024/04/25 03:07:02;;;;;;;3.92;1.40;;;;;;;;;;5326694;26;20012;-62
2024/04/25 03:09:28;;;;;;;3.47;1.23;;;;;;;;;;5324373;26;20005;-62
2024/04/25 03:11:56;;;;;;;8.35;1.38;;;;;;;;;;5316164;26;20009;-62
2024/04/25 03:14:22;;;;;;;;;;;;;;;;;;5303055;26;20005;-63
2024/04/25 03:16:50;;;;;;;3.58;1.05;;;;;;;;;;5322425;26;19964;-62
2024/04/25 03:19:16;;;;;;;3.63;1.10;;;;;;;;;;5304139;26;20009;-62
2024/04/25 03:21:44;;;;;;;1.85;0.95;;;;;;;;;;5320668;26;20156;-62
2024/04/25 03:24:13;;;;;;;4.00;0.88;;;;;;;;;;5307203;26;20005;-61
2024/04/25 03:26:41;;;;;;;2.00;1.13;;;;;;;;;;5324238;26;20052;-61
2024/04/25 03:29:07;;;;;;;2.25;1.10;;;;;;;;;;5308495;26;20041;-62
2024/04/25 03:31:37;;;;;;;3.25;0.90;;;;;;;;;;5323287;26;20012;-62
2024/04/25 03:34:02;;;;;;;3.72;1.00;;;;;;;;;;5310817;26;20008;-62
2024/04/25 03:36:30;;;;;;;3.95;0.75;;;;;;;;;;5372746;26;20000;-62
2024/04/25 03:38:59;;;;;;;6.07;1.08;;;;;;;;;;5357419;26;20044;-61
2024/04/25 03:41:32;;;;;;;2.10;1.00;;;;;;;;;;5354986;26;20048;-62
2024/04/25 03:44:00;;;;;;;1.52;0.77;;;;;;;;;;5346337;26;19995;-62
2024/04/25 03:46:29;;;;;;;5.57;0.98;;;;;;;;;;5372745;26;20011;-62
2024/04/25 03:48:57;;;;;;;1.52;0.65;;;;;;;;;;5360396;26;20023;-62
2024/04/25 03:51:25;;;;;;;3.03;1.23;;;;;;;;;;5359821;26;20012;-62
2024/04/25 03:53:53;;;;;;;2.40;0.82;;;;;;;;;;5347553;26;19996;-62
2024/04/25 03:56:21;;;;;;;2.88;0.60;;;;;;;;;;5360360;26;20055;-62
2024/04/25 03:58:52;;;;;;;2.63;0.88;;;;;;;;;;5359598;26;20000;-62
2024/04/25 04:01:21;;;;;;;2.20;0.82;;;;;;;;;;5356856;26;20024;-62
2024/04/25 04:03:49;;;;;;;1.35;0.77;;;;;;;;;;5330418;26;20000;-62
2024/04/25 04:06:20;;;;;;;5.63;1.40;;;;;;;;;;5307172;26;20017;-62
2024/04/25 04:08:48;;;;;;;1.00;0.57;;;;;;;;;;5312156;26;20074;-62
2024/04/25 04:11:16;;;;;;;1.77;0.70;;;;;;;;;;5308788;26;20040;-62
2024/04/25 04:13:45;;;;;;;3.47;0.88;;;;;;;;;;5292613;26;20001;-62
2024/04/25 04:16:16;;;;;;;;;;;;;;;;;;5315437;26;20401;-62
2024/04/25 04:18:44;;;;;;;1.70;0.75;;;;;;;;;;5334410;26;19926;-62
2024/04/25 04:21:13;;;;;;;1.42;0.77;;;;;;;;;;5329156;26;20048;-61
2024/04/25 04:23:42;;;;;;;;;;;;;;;;;;5329705;26;20001;-62
2024/04/25 04:26:11;;;;;;;3.45;0.88;;;;;;;;;;5329097;26;19929;-62
2024/04/25 04:28:39;;;;;;;1.88;1.00;;;;;;;;;;5326344;26;20645;-62
2024/04/25 04:31:07;;;;;;;2.10;0.90;;;;;;;;;;5329070;26;20040;-62
2024/04/25 04:33:40;;;;;;;3.90;1.00;;;;;;;;;;5309010;26;20001;-62
2024/04/25 04:36:08;;;;;;;3.22;0.98;;;;;;;;;;5323732;26;20024;-62
2024/04/25 04:38:36;;;;;;;12.73;5.28;;;;;;;;;;5323356;26;20041;-63
2024/04/25 04:41:05;;;;;;;11.30;3.05;;;;;;;;;;5325218;26;20005;-63
2024/04/25 04:43:36;;;;;;;2.55;1.08;;;;;;;;;;5328358;26;20020;-64
2024/04/25 04:46:05;;;;;;;4.70;1.17;;;;;;;;;;5316339;26;20012;-62
2024/04/25 04:48:33;;;;;;;2.90;1.15;;;;;;;;;;5337150;26;20016;-62
2024/04/25 04:51:04;;;;;;;4.28;0.98;;;;;;;;;;5325387;26;20001;-62
2024/04/25 04:53:33;;;;;;;2.05;0.77;;;;;;;;;;5324327;26;20021;-62
2024/04/25 04:56:01;;;;;;;3.47;0.90;;;;;;;;;;5360828;26;20001;-62
2024/04/25 04:58:29;;;;;;;2.53;1.17;;;;;;;;;;5367530;26;20004;-66
2024/04/25 05:00:58;;;;;;;2.80;1.25;;;;;;;;;;5367314;26;20000;-63
2024/04/25 05:03:29;;;;;;;5.97;1.42;;;;;;;;;;5361459;26;20007;-63
2024/04/25 05:05:58;;;;;;;3.45;1.17;;;;;;;;;;5333581;26;20000;-63
2024/04/25 05:08:31;;;;;;;5.65;1.35;;;;;;;;;;5347741;26;20011;-62
2024/04/25 05:10:59;;;;;;;6.18;1.67;;;;;;;;;;5354265;26;20020;-62
2024/04/25 05:13:30;;;;;;;4.10;1.70;;;;;;;;;;5353895;26;20016;-63
2024/04/25 05:15:58;;;;;;;7.05;1.75;;;;;;;;;;5298143;26;20008;-62
2024/04/25 05:18:27;;;;;;;8.60;2.60;;;;;;;;;;5330321;26;20012;-63
2024/04/25 05:20:55;;;;;;;6.22;2.75;;;;;;;;;;5316504;26;20025;-63
2024/04/25 05:23:24;;;;;;;5.75;2.10;;;;;;;;;;5322714;26;20027;-62
2024/04/25 05:25:55;;;;;;;4.95;1.98;;;;;;;;;;5276900;26;20031;-62
2024/04/25 05:28:25;;;;;;;4.18;1.75;;;;;;;;;;5388868;26;20062;-61
2024/04/25 05:30:57;;;;;;;6.20;1.80;;;;;;;;;;5380498;26;20023;-62
2024/04/25 05:33:26;;;;;;;6.97;1.95;;;;;;;;;;5358803;26;20000;-62
2024/04/25 05:35:56;;;;;;;6.13;1.67;;;;;;;;;;5284335;26;20017;-63
2024/04/25 05:38:24;;;;;;;4.63;1.98;;;;;;;;;;5352540;26;20021;-63
2024/04/25 05:40:56;;;;;;;;;;;;;;;;;;5352282;26;20004;-61
2024/04/25 05:43:27;;;;;;;5.82;1.67;;;;;;;;;;5358025;26;19933;-63
2024/04/25 05:45:58;;;;;;;9.45;2.20;;;;;;;;;;5307726;26;20005;-63
2024/04/25 05:48:31;;;;;;;6.65;2.08;;;;;;;;;;5353498;26;20077;-63
2024/04/25 05:51:00;;;;;;;4.55;2.20;;;;;;;;;;5359277;26;20078;-62
2024/04/25 05:53:29;;;;;;;5.88;2.60;;;;;;;;;;5360679;26;20023;-63
2024/04/25 05:56:00;;;;;;;8.68;2.83;;;;;;;;;;5334016;26;20001;-62
2024/04/25 05:58:29;;;;;;;7.63;2.30;;;;;;;;;;5343380;26;20000;-63
2024/04/25 06:00:57;;;;;;;10.65;2.78;;;;;;;;;;5371960;26;20060;-63
2024/04/25 06:03:25;;;;;;;7.47;2.75;;;;;;;;;;5357974;26;20123;-63
2024/04/25 06:05:54;;;;;;;6.20;2.03;;;;;;;;;;5331581;26;20244;-62
2024/04/25 06:08:22;;;;;;;4.53;1.95;;;;;;;;;;5360334;26;20011;-64
2024/04/25 06:10:50;;;;;;;8.50;3.10;;;;;;;;;;5362204;26;20008;-62
2024/04/25 06:13:21;;;;;;;8.07;2.83;;;;;;;;;;5360676;26;20004;-63
2024/04/25 06:15:50;;;;;;;13.52;3.90;;;;;;;;;;5360627;26;20014;-63
2024/04/25 06:18:18;;;;;;;9.30;2.53;;;;;;;;;;5347087;26;20004;-63
2024/04/25 06:20:49;;;;;;;7.40;1.83;;;;;;;;;;5360874;26;20004;-63
2024/04/25 06:23:18;;;;;;;9.07;3.40;;;;;;;;;;5358976;26;20008;-62
2024/04/25 06:25:46;;;;;;;6.28;2.42;;;;;;;;;;5320097;26;20086;-64
2024/04/25 06:28:15;;;;;;;7.00;3.15;;;;;;;;;;5360860;26;19996;-62
2024/04/25 06:30:46;;;;;;;6.03;2.33;;;;;;;;;;5356089;26;20000;-63
2024/04/25 06:33:14;;;;;;;4.55;2.03;;;;;;;;;;5359776;26;20012;-62
2024/04/25 06:35:43;;;;;;;2.70;1.40;;;;;;;;;;5350277;26;20007;-65
2024/04/25 06:38:14;;;;;;;;;;;;;;;;;;5373575;26;20015;-63
2024/04/25 06:40:42;;;;;;;11.45;3.17;;;;;;;;;;5359501;26;20021;-63
2024/04/25 06:43:11;;;;;;;;;;;;;;;;;;5360217;26;20015;-62
2024/04/25 06:45:42;;;;;;;3.53;1.27;;;;;;;;;;5334630;26;19993;-63
2024/04/25 06:48:13;;;;;;;4.95;1.65;;;;;;;;;;5360465;26;20008;-63
2024/04/25 06:50:44;;;;;;;5.97;1.48;;;;;;;;;;5360262;26;19996;-63
2024/04/25 06:53:13;;;;;;;3.78;1.23;;;;;;;;;;5362796;26;20023;-63
2024/04/25 06:55:43;;;;;;;5.80;1.20;;;;;;;;;;5336120;26;20004;-63
2024/04/25 06:58:12;;;;;;;5.45;1.55;;;;;;;;;;5364379;26;20015;-63
2024/04/25 07:00:40;;;;;;;;;;;;;;;;;;5358361;26;20004;-62
2024/04/25 07:03:08;;;;;;;6.70;2.53;;;;;;;;;;5359851;26;19932;-62
2024/04/25 07:05:43;;;;;;;10.20;2.47;;;;;;;;;;5339195;26;20014;-62
2024/04/25 07:08:12;;;;;;;4.22;2.05;;;;;;;;;;5358761;26;20004;-63
2024/04/25 07:10:41;;;;;;;5.45;2.17;;;;;;;;;;5350324;26;20013;-63
2024/04/25 07:13:09;;;;;;;4.47;1.50;;;;;;;;;;5350687;26;20004;-63
2024/04/25 07:15:37;;;;;;;4.78;1.30;;;;;;;;;;5345198;26;20023;-63
2024/04/25 07:18:07;;;;;;;5.55;1.88;;;;;;;;;;5351216;26;20015;-61
2024/04/25 07:20:35;;;;;;;3.45;1.42;;;;;;;;;;5354458;26;20000;-63
2024/04/25 07:23:06;;;;;;;;;;;;;;;;;;5359953;26;20000;-63
2024/04/25 07:25:38;;;;;;;4.55;1.88;;;;;;;;;;5277828;26;20125;-63
2024/04/25 07:28:07;;;;;;;5.18;1.30;;;;;;;;;;5351299;26;20004;-62
2024/04/25 07:30:35;;;;;;;6.97;1.85;;;;;;;;;;5357382;26;20012;-63
2024/04/25 07:33:06;;;;;;;3.63;1.60;;;;;;;;;;5355528;26;20535;-63
2024/04/25 07:35:40;;;;;;;4.28;1.80;;;;;;;;;;5354959;26;20000;-63
2024/04/25 07:38:11;;;;;;;4.47;1.83;;;;;;;;;;5357517;26;20011;-63
2024/04/25 07:40:40;;;;;;;7.53;1.77;;;;;;;;;;5349340;26;20028;-62
2024/04/25 07:43:08;;;;;;;7.65;1.95;;;;;;;;;;5353722;26;20004;-63
2024/04/25 07:45:37;;;;;;;4.57;1.60;;;;;;;;;;5315040;26;20008;-63
2024/04/25 07:48:06;;;;;;;;;;;;;;;;;;5355149;26;20004;-63
2024/04/25 07:50:34;;;;;;;2.78;1.50;;;;;;;;;;5359430;26;20253;-62
2024/04/25 07:53:02;;;;;;;3.67;1.42;;;;;;;;;;5359243;26;20011;-62
2024/04/25 07:55:33;;;;;;;3.97;1.75;;;;;;;;;;5325213;26;20019;-61
2024/04/25 07:58:02;;;;;;;8.70;1.45;;;;;;;;;;5358067;26;20000;-63
2024/04/25 08:00:31;;;;;;;3.97;1.33;;;;;;;;;;5358673;26;20000;-63
2024/04/25 08:03:01;;;;;;;8.05;2.10;;;;;;;;;;5358865;26;20004;-61
2024/04/25 08:05:29;;;;;;;4.70;1.42;;;;;;;;;;5291869;26;20039;-62
2024/04/25 08:07:58;;;;;;;8.35;1.52;;;;;;;;;;5347897;26;20182;-63
2024/04/25 08:10:27;;;;;;;6.45;1.60;;;;;;;;;;5353136;26;20005;-64
2024/04/25 08:13:00;;;;;;;4.50;1.58;;;;;;;;;;5355630;26;20001;-63
2024/04/25 08:15:28;;;;;;;7.82;1.60;;;;;;;;;;5351464;26;20000;-62
2024/04/25 08:17:56;;;;;;;3.78;1.15;;;;;;;;;;5350086;26;20060;-62
2024/04/25 08:20:25;;;;;;;5.53;1.30;;;;;;;;;;5358069;26;19996;-63
2024/04/25 08:22:55;;;;;;;3.03;1.35;;;;;;;;;;5358757;26;20048;-62
2024/04/25 08:25:26;;;;;;;6.00;1.50;;;;;;;;;;5356490;26;20076;-63
2024/04/25 08:27:57;;;;;;;5.57;1.67;;;;;;;;;;5348577;26;20363;-63
2024/04/25 08:30:26;;;;;;;6.03;1.50;;;;;;;;;;5359123;26;20019;-63
2024/04/25 08:32:55;;;;;;;;;;;;;;;;;;5342999;26;20008;-63
2024/04/25 08:35:24;;;;;;;18.17;4.63;;;;;;;;;;5354999;26;19971;-63
2024/04/25 08:37:52;;;;;;;6.65;1.70;;;;;;;;;;5346090;26;20012;-63
2024/04/25 08:40:26;;;;;;;6.00;1.38;;;;;;;;;;5360521;26;20005;-63
2024/04/25 08:42:58;;;;;;;3.88;1.33;;;;;;;;;;5357856;26;20004;-63
2024/04/25 08:45:26;;;;;;;3.47;1.33;;;;;;;;;;5339012;26;20008;-63
2024/04/25 08:47:58;;;;;;;5.25;1.58;;;;;;;;;;5362770;26;19997;-62
2024/04/25 08:50:28;;;;;;;7.07;2.00;;;;;;;;;;5358368;26;20001;-62
2024/04/25 08:52:58;;;;;;;7.30;1.75;;;;;;;;;;5359590;26;20047;-62
2024/04/25 08:55:27;;;;;;;5.20;1.48;;;;;;;;;;5342824;26;20000;-62
2024/04/25 08:57:59;;;;;;;2.72;1.42;;;;;;;;;;5339683;26;20008;-62
2024/04/25 09:00:27;;;;;;;6.10;1.40;;;;;;;;;;5357672;26;20008;-63
2024/04/25 09:02:59;;;;;;;5.05;1.75;;;;;;;;;;5357164;26;20005;-64
2024/04/25 09:05:33;;;;;;;3.33;1.77;;;;;;;;;;5280467;26;20009;-62
2024/04/25 09:08:02;;;;;;;5.55;1.67;;;;;;;;;;5312151;26;20016;-62
2024/04/25 09:10:36;;;;;;;;;;;;;;;;;;5318340;26;20005;-63
2024/04/25 09:13:07;;;;;;;2.85;1.10;;;;;;;;;;5320623;26;19975;-63
2024/04/25 09:15:36;;;;;;;3.22;1.20;;;;;;;;;;5306731;26;20004;-63
2024/04/25 09:18:04;;;;;;;;;;;;;;;;;;5355232;26;20015;-63
2024/04/25 09:20:34;;;;;;;4.45;1.25;;;;;;;;;;5357892;26;19932;-62
2024/04/25 09:23:02;;;;;;;4.78;1.25;;;;;;;;;;5356314;26;20004;-62
2024/04/25 09:25:32;;;;;;;4.05;1.48;;;;;;;;;;5311667;26;20031;-62
2024/04/25 09:28:02;;;;;;;4.53;1.60;;;;;;;;;;5339630;26;20008;-63
2024/04/25 09:30:33;;;;;;;6.68;2.00;;;;;;;;;;5350274;26;20001;-61
2024/04/25 09:33:05;;;;;;;3.35;1.50;;;;;;;;;;5360669;26;20008;-63
2024/04/25 09:35:45;;;;;;;2.85;1.08;;;;;;;;;;5333883;26;20057;-63
2024/04/25 09:38:14;;;;;;;4.07;1.20;;;;;;;;;;5339137;26;20000;-62
2024/04/25 09:40:44;;;;;;;7.60;1.42;;;;;;;;;;5340419;26;20020;-62
2024/04/25 09:43:13;;;;;;;6.15;1.63;;;;;;;;;;5361195;26;20015;-63
2024/04/25 09:45:48;;;;;;;11.10;1.60;;;;;;;;;;5349699;26;20011;-64
2024/04/25 09:48:20;;;;;;;7.90;1.20;;;;;;;;;;5342751;26;20018;-64
2024/04/25 09:50:50;;;;;;;4.65;1.30;;;;;;;;;;5359712;26;20000;-63
2024/04/25 09:53:24;;;;;;;7.18;1.50;;;;;;;;;;5345809;26;20011;-63
2024/04/25 09:55:53;;;;;;;7.65;1.60;;;;;;;;;;5334132;26;20067;-63
2024/04/25 09:58:32;;;;;;;6.63;1.83;;;;;;;;;;5360241;26;20090;-63
2024/04/25 10:01:03;;;;;;;3.90;1.63;;;;;;;;;;5359515;26;20009;-63
2024/04/25 10:03:33;;;;;;;5.10;1.63;;;;;;;;;;5360203;26;20001;-63
2024/04/25 10:06:02;;;;;;;4.45;1.63;;;;;;;;;;5373354;26;20007;-63
2024/04/25 10:08:32;;;;;;;16.42;4.85;;;;;;;;;;5362924;26;20413;-63
2024/04/25 10:11:01;;;;;;;12.27;3.47;;;;;;;;;;5360377;26;20008;-64
2024/04/25 10:13:30;;;;;;;5.70;1.60;;;;;;;;;;5351941;26;20005;-62
2024/04/25 10:15:59;;;;;;;3.08;0.70;;;;;;;;;;5308718;26;20020;-63
2024/04/25 10:18:31;;;;;;;3.17;0.82;;;;;;;;;;5360046;26;20019;-63
2024/04/25 10:21:02;;;;;;;2.92;0.90;;;;;;;;;;5357957;26;20019;-61
2024/04/25 10:23:35;;;;;;;1.80;0.60;;;;;;;;;;5360519;26;19997;-62
2024/04/25 10:26:04;;;;;;;0.73;0.57;;;;;;;;;;5348707;26;20193;-62
2024/04/25 10:28:32;;;;;;;3.15;0.60;;;;;;;;;;5361902;26;20051;-63
2024/04/25 10:31:01;;;;;;;8.13;0.95;;;;;;;;;;5360604;26;20008;-62
2024/04/25 10:33:32;;;;;;;1.42;0.68;;;;;;;;;;5360371;26;20000;-62
2024/04/25 10:36:08;;;;;;;1.55;0.68;;;;;;;;;;5303826;26;20008;-62
2024/04/25 10:38:36;;;;;;;1.23;0.55;;;;;;;;;;5357321;26;20000;-62
2024/04/25 10:41:05;;;;;;;6.03;0.80;;;;;;;;;;5347520;26;20027;-61
2024/04/25 10:43:33;;;;;;;2.95;0.80;;;;;;;;;;5356379;26;20096;-61
2024/04/25 10:46:02;;;;;;;2.78;1.00;;;;;;;;;;5325664;26;21165;-62
2024/04/25 10:48:34;;;;;;;5.85;1.00;;;;;;;;;;5360798;26;20008;-63
2024/04/25 10:51:04;;;;;;;4.22;1.10;;;;;;;;;;5358795;26;20000;-62
2024/04/25 10:53:33;;;;;;;6.07;1.08;;;;;;;;;;5360379;26;20004;-61
2024/04/25 10:56:01;;;;;;;5.03;1.10;;;;;;;;;;5320804;26;20031;-62
2024/04/25 10:58:30;;;;;;;7.78;1.27;;;;;;;;;;5364681;26;20016;-62
2024/04/25 11:00:58;;;;;;;4.43;1.90;;;;;;;;;;5374284;26;19999;-62
2024/04/25 11:03:26;;;;;;;2.75;1.10;;;;;;;;;;5360250;26;20012;-61
2024/04/25 11:05:58;;;;;;;5.00;1.38;;;;;;;;;;5336752;26;19999;-62
2024/04/25 11:08:27;;;;;;;4.03;1.30;;;;;;;;;;5363680;26;20035;-62
2024/04/25 11:10:56;;;;;;;6.68;1.25;;;;;;;;;;5368374;26;19996;-63
2024/04/25 11:13:28;;;;;;;3.83;1.00;;;;;;;;;;5358189;26;20000;-61
2024/04/25 11:15:59;;;;;;;4.18;1.05;;;;;;;;;;5303792;26;20009;-63
2024/04/25 11:18:31;;;;;;;11.32;2.30;;;;;;;;;;5348701;26;20000;-63
2024/04/25 11:21:03;;;;;;;5.22;1.52;;;;;;;;;;5367376;26;20014;-62
2024/04/25 11:23:32;;;;;;;3.22;0.95;;;;;;;;;;5363588;26;20111;-63
2024/04/25 11:26:03;;;;;;;6.50;1.35;;;;;;;;;;5348552;26;20046;-63
2024/04/25 11:28:32;;;;;;;4.72;1.40;;;;;;;;;;5362592;26;20008;-63
2024/04/25 11:31:00;;;;;;;5.20;1.10;;;;;;;;;;5359098;26;20015;-63
2024/04/25 11:33:30;;;;;;;5.85;1.13;;;;;;;;;;5371455;26;20140;-62
2024/04/25 11:35:59;;;;;;;6.63;1.70;;;;;;;;;;5286483;26;20001;-63
2024/04/25 11:38:33;;;;;;;5.60;1.48;;;;;;;;;;5357783;26;20012;-62
2024/04/25 11:41:04;;;;;;;6.53;1.48;;;;;;;;;;5372944;26;20012;-64
2024/04/25 11:43:33;;;;;;;4.90;1.75;;;;;;;;;;5356984;26;20004;-64
2024/04/25 11:46:03;;;;;;;8.82;1.42;;;;;;;;;;5360489;26;20003;-62
2024/04/25 11:48:32;;;;;;;3.67;0.90;;;;;;;;;;5369932;26;20015;-63
2024/04/25 11:51:00;;;;;;;2.60;0.80;;;;;;;;;;5374647;26;20019;-64
2024/04/25 11:53:35;;;;;;;4.80;1.15;;;;;;;;;;5360378;26;20039;-62
2024/04/25 11:56:03;;;;;;;3.95;1.10;;;;;;;;;;5329641;26;20014;-62
2024/04/25 11:58:31;;;;;;;2.08;0.77;;;;;;;;;;5353568;26;20040;-64
2024/04/25 12:01:00;;;;;;;3.10;1.08;;;;;;;;;;5358830;26;20015;-63
2024/04/25 12:03:34;;;;;;;3.35;1.08;;;;;;;;;;5369328;26;20001;-64
2024/04/25 12:06:02;;;;;;;6.60;1.10;;;;;;;;;;5309794;26;20254;-62
2024/04/25 12:08:33;;;;;;;5.90;1.48;;;;;;;;;;5364970;26;20016;-64
2024/04/25 12:11:01;;;;;;;2.47;1.15;;;;;;;;;;5360594;26;20012;-62
2024/04/25 12:13:32;;;;;;;8.70;1.35;;;;;;;;;;5379509;26;19999;-64
2024/04/25 12:16:01;;;;;;;10.00;1.50;;;;;;;;;;5333502;26;20003;-62
2024/04/25 12:18:30;;;;;;;4.97;1.38;;;;;;;;;;5362665;26;20074;-62
2024/04/25 12:21:01;;;;;;;3.17;1.23;;;;;;;;;;5367498;26;20008;-64
2024/04/25 12:23:33;;;;;;;4.55;1.38;;;;;;;;;;5357008;26;20008;-63
2024/04/25 12:26:04;;;;;;;3.80;1.50;;;;;;;;;;5329829;26;20090;-63
2024/04/25 12:28:34;;;;;;;8.30;1.67;;;;;;;;;;5337230;26;20031;-63
2024/04/25 12:31:07;;;;;;;4.63;1.80;;;;;;;;;;5327301;26;20012;-63
2024/04/25 12:33:40;;;;;;;3.90;1.77;;;;;;;;;;5313748;26;20120;-62
2024/04/25 12:36:09;;;;;;;7.38;1.75;;;;;;;;;;5307940;26;20321;-63
2024/04/25 12:38:37;;;;;;;7.30;1.75;;;;;;;;;;5334001;26;20000;-63
2024/04/25 12:41:08;;;;;;;8.15;2.00;;;;;;;;;;5331969;26;20001;-63
2024/04/25 12:43:40;;;;;;;5.40;1.90;;;;;;;;;;5321449;26;20049;-63
2024/04/25 12:46:08;;;;;;;7.45;1.75;;;;;;;;;;5349468;26;19997;-65
2024/04/25 12:48:37;;;;;;;8.88;1.40;;;;;;;;;;5362424;26;19997;-66
2024/04/25 12:51:05;;;;;;;8.35;1.75;;;;;;;;;;5361291;26;20004;-61
2024/04/25 12:53:34;;;;;;;9.13;2.05;;;;;;;;;;5359371;26;20130;-62
2024/04/25 12:56:02;;;;;;;5.55;1.55;;;;;;;;;;5295907;26;20649;-62
2024/04/25 12:58:36;;;;;;;5.28;1.52;;;;;;;;;;5299734;26;20025;-62
2024/04/25 13:01:05;;;;;;;7.45;1.90;;;;;;;;;;5300336;26;20009;-62
2024/04/25 13:03:42;;;;;;;8.00;1.75;;;;;;;;;;5326488;26;20001;-63
2024/04/25 13:06:10;;;;;;;3.42;1.63;;;;;;;;;;5311524;26;20000;-63
2024/04/25 13:08:41;;;;;;;6.35;2.08;;;;;;;;;;5358513;26;20004;-63
2024/04/25 13:11:12;;;;;;;5.50;2.30;;;;;;;;;;5370489;26;20018;-62
2024/04/25 13:13:45;;;;;;;8.73;1.92;;;;;;;;;;5355836;26;20004;-62
2024/04/25 13:16:14;;;;;;;7.65;2.22;;;;;;;;;;5346303;26;19996;-64
2024/04/25 13:18:42;;;;;;;10.40;2.00;;;;;;;;;;5358058;26;20157;-64
2024/04/25 13:21:11;;;;;;;4.40;1.85;;;;;;;;;;5362259;26;20004;-63
2024/04/25 13:23:39;;;;;;;6.55;1.85;;;;;;;;;;5360050;26;20016;-62
2024/04/25 13:26:12;;;;;;;;;;;;;;;;;;5313315;26;20015;-63
2024/04/25 13:28:44;;;;;;;5.80;1.92;;;;;;;;;;5360784;26;19925;-62
2024/04/25 13:31:14;;;;;;;3.92;2.03;;;;;;;;;;5358131;26;19997;-64
2024/04/25 13:33:46;;;;;;;7.55;1.90;;;;;;;;;;5356959;26;19996;-61
2024/04/25 13:36:14;;;;;;;7.10;1.75;;;;;;;;;;5336764;26;20004;-63
2024/04/25 13:38:45;;;;;;;7.82;2.47;;;;;;;;;;5369158;26;20015;-63
2024/04/25 13:41:14;;;;;;;7.07;2.35;;;;;;;;;;5360128;26;20098;-64
2024/04/25 13:43:45;;;;;;;9.52;2.30;;;;;;;;;;5354703;26;20031;-62
2024/04/25 13:46:14;;;;;;;12.07;2.45;;;;;;;;;;5359488;26;20062;-65
2024/04/25 13:48:42;;;;;;;8.82;2.60;;;;;;;;;;5372763;26;20043;-64
2024/04/25 13:51:11;;;;;;;8.23;2.22;;;;;;;;;;5361621;26;20042;-61
2024/04/25 13:53:39;;;;;;;11.25;2.28;;;;;;;;;;5357780;26;20035;-62
2024/04/25 13:56:11;;;;;;;12.07;2.30;;;;;;;;;;5356119;26;20058;-63
2024/04/25 13:58:40;;;;;;;8.45;2.17;;;;;;;;;;5363151;26;20004;-62
2024/04/25 14:01:11;;;;;;;7.28;2.35;;;;;;;;;;5361861;26;20031;-64
2024/04/25 14:03:41;;;;;;;5.18;1.80;;;;;;;;;;5355897;26;20077;-63
2024/04/25 14:06:12;;;;;;;8.05;2.25;;;;;;;;;;5338256;26;20004;-62
2024/04/25 14:08:45;;;;;;;9.93;2.20;;;;;;;;;;5360120;26;20023;-63
2024/04/25 14:11:14;;;;;;;4.75;1.83;;;;;;;;;;5362449;26;20000;-63
2024/04/25 14:13:43;;;;;;;10.70;2.42;;;;;;;;;;5354102;26;20047;-64
2024/04/25 14:16:14;;;;;;;6.43;2.47;;;;;;;;;;5325093;26;20051;-63
2024/04/25 14:18:42;;;;;;;7.68;2.20;;;;;;;;;;5365777;26;20004;-64
2024/04/25 14:21:11;;;;;;;9.30;2.05;;;;;;;;;;5360771;26;20044;-63
2024/04/25 14:23:42;;;;;;;10.70;2.50;;;;;;;;;;5358538;26;20019;-64
2024/04/25 14:28:56;;;;;;;5.70;2.08;;;;;;;;;;5355701;26;20019;-62
2024/04/25 14:31:27;;;;;;;16.10;2.40;;;;;;;;;;5360885;26;20090;-63
2024/04/25 14:33:55;;;;;;;8.50;2.50;;;;;;;;;;5353935;26;20032;-63
2024/04/25 14:36:23;;;;;;;7.30;2.17;;;;;;;;;;5320914;26;20050;-63
2024/04/25 14:38:52;;;;;;;7.05;1.58;;;;;;;;;;5361471;26;20091;-63
2024/04/25 14:41:20;;;;;;;6.50;2.05;;;;;;;;;;5360798;26;20008;-63
2024/04/25 14:43:48;;;;;;;11.88;2.00;;;;;;;;;;5358513;26;20058;-63
2024/04/25 14:46:17;;;;;;;7.03;2.20;;;;;;;;;;5342642;26;20019;-63
2024/04/25 14:48:49;;;;;;;9.38;2.53;;;;;;;;;;5375311;26;20044;-63
2024/04/25 14:51:20;;;;;;;8.43;1.90;;;;;;;;;;5354127;26;19996;-63
2024/04/25 14:53:48;;;;;;;5.43;2.20;;;;;;;;;;5352951;26;20080;-62
2024/04/25 14:56:16;;;;;;;7.10;1.98;;;;;;;;;;5357788;26;20018;-63
2024/04/25 14:58:45;;;;;;;9.20;2.40;;;;;;;;;;5360401;26;20004;-63
2024/04/25 15:01:18;;;;;;;5.05;1.92;;;;;;;;;;5365984;26;20019;-63
2024/04/25 15:03:49;;;;;;;10.45;3.38;;;;;;;;;;5358199;26;20100;-64
2024/04/25 15:06:18;;;;;;;7.57;2.28;;;;;;;;;;5341158;26;20000;-62
2024/04/25 15:08:46;;;;;;;7.78;2.92;;;;;;;;;;5365870;26;20068;-64